createdAt,value
2023-03-18T00:00:51.454Z,59.87
2023-03-18T00:03:18.960Z,60.74
2023-03-18T00:05:46.565Z,60.93
2023-03-18T00:08:13.997Z,61.43
2023-03-18T00:10:41.513Z,62.07
2023-03-18T00:13:08.853Z,62.31
2023-03-18T00:15:37.248Z,61.98
2023-03-18T00:18:04.963Z,61.49
2023-03-18T00:20:41.752Z,61.40
2023-03-18T00:23:09.598Z,61.02
2023-03-18T00:25:37.986Z,61.69
2023-03-18T00:28:07.144Z,62.90
2023-03-18T00:30:38.673Z,62.81
2023-03-18T00:33:06.276Z,62.92
2023-03-18T00:35:34.537Z,62.97
2023-03-18T00:38:04.055Z,62.28
2023-03-18T00:40:43.351Z,62.47
2023-03-18T00:43:12.648Z,61.78
2023-03-18T00:45:41.162Z,61.98
2023-03-18T00:48:10.936Z,61.52
2023-03-18T00:50:38.337Z,61.45
2023-03-18T00:53:05.885Z,61.92
2023-03-18T00:55:33.492Z,61.92
2023-03-18T00:58:01.700Z,61.71
2023-03-18T01:00:29.959Z,61.76
2023-03-18T01:02:57.683Z,61.31
2023-03-18T01:05:25.084Z,60.82
2023-03-18T01:07:53.164Z,60.88
2023-03-18T01:10:20.757Z,60.78
2023-03-18T01:12:48.276Z,60.61
2023-03-18T01:15:18.790Z,60.75
2023-03-18T01:17:46.856Z,60.42
2023-03-18T01:20:17.983Z,60.89
2023-03-18T01:22:47.753Z,61.54
2023-03-18T01:25:16.430Z,61.39
2023-03-18T01:27:47.913Z,61.20
2023-03-18T01:30:16.028Z,60.83
2023-03-18T01:32:44.078Z,60.73
2023-03-18T01:35:12.704Z,60.97
2023-03-18T01:37:46.839Z,60.87
2023-03-18T01:40:16.348Z,60.53
2023-03-18T01:42:53.129Z,60.71
2023-03-18T01:45:28.681Z,60.25
2023-03-18T01:47:58.728Z,60.15
2023-03-18T01:50:32.324Z,60.24
2023-03-18T01:53:06.899Z,59.85
2023-03-18T01:55:36.297Z,59.59
2023-03-18T01:58:10.201Z,59.62
2023-03-18T02:00:44.785Z,59.85
2023-03-18T02:03:13.055Z,60.04
2023-03-18T02:05:43.405Z,59.91
2023-03-18T02:08:10.786Z,59.64
2023-03-18T02:10:38.721Z,59.98
2023-03-18T02:13:09.905Z,60.23
2023-03-18T02:15:51.281Z,60.13
2023-03-18T02:18:33.816Z,60.61
2023-03-18T02:21:22.669Z,60.74
2023-03-18T02:24:20.789Z,60.65
2023-03-18T02:27:19.272Z,60.46
2023-03-18T02:29:48.379Z,60.19
2023-03-18T02:32:22.324Z,60.12
2023-03-18T02:34:50.945Z,60.81
2023-03-18T02:37:18.411Z,60.53
2023-03-18T02:39:45.822Z,60.87
2023-03-18T02:42:14.858Z,60.87
2023-03-18T02:44:49.197Z,60.74
2023-03-18T02:47:35.373Z,61.13
2023-03-18T02:50:03.846Z,61.83
2023-03-18T02:52:31.667Z,61.38
2023-03-18T02:54:59.314Z,61.13
2023-03-18T02:57:28.731Z,60.98
2023-03-18T02:59:57.621Z,61.48
2023-03-18T03:02:27.206Z,61.20
2023-03-18T03:04:54.791Z,61.08
2023-03-18T03:07:26.631Z,61.39
2023-03-18T03:09:54.808Z,61.81
2023-03-18T03:12:23.044Z,61.75
2023-03-18T03:14:54.831Z,61.93
2023-03-18T03:17:22.765Z,61.76
2023-03-18T03:19:51.113Z,61.41
2023-03-18T03:22:18.548Z,61.58
2023-03-18T03:24:47.603Z,61.51
2023-03-18T03:27:15.017Z,61.05
2023-03-18T03:29:43.480Z,61.02
2023-03-18T03:32:11.953Z,61.23
2023-03-18T03:34:39.521Z,61.30
2023-03-18T03:37:07.185Z,61.53
2023-03-18T03:39:34.584Z,61.86
2023-03-18T03:42:02.016Z,62.12
2023-03-18T03:44:30.279Z,62.20
2023-03-18T03:46:57.734Z,62.71
2023-03-18T03:49:25.232Z,62.74
2023-03-18T03:51:52.672Z,62.79
2023-03-18T03:54:21.645Z,63.03
2023-03-18T03:56:49.175Z,62.99
2023-03-18T03:59:17.674Z,62.71
2023-03-18T04:02:02.282Z,62.98
2023-03-18T04:04:33.562Z,62.71
2023-03-18T04:07:03.254Z,63.48
2023-03-18T04:09:30.760Z,64.03
2023-03-18T04:11:58.393Z,63.09
2023-03-18T04:14:26.281Z,63.14
2023-03-18T04:16:56.028Z,63.15
2023-03-18T04:19:24.715Z,64.05
2023-03-18T04:21:59.105Z,63.80
2023-03-18T04:24:26.604Z,62.99
2023-03-18T04:26:53.986Z,63.68
2023-03-18T04:29:22.718Z,62.93
2023-03-18T04:31:50.961Z,62.81
2023-03-18T04:34:18.879Z,62.37
2023-03-18T04:36:46.597Z,62.43
2023-03-18T04:39:14.563Z,62.60
2023-03-18T04:41:42.541Z,62.15
2023-03-18T04:44:11.943Z,62.00
2023-03-18T04:46:45.326Z,62.86
2023-03-18T04:49:13.676Z,63.25
2023-03-18T04:51:42.404Z,63.83
2023-03-18T04:54:19.076Z,63.60
2023-03-18T04:56:47.469Z,63.60
2023-03-18T04:59:15.237Z,63.67
2023-03-18T05:01:42.988Z,63.67
2023-03-18T05:04:11.545Z,65.12
2023-03-18T05:06:46.766Z,64.50
2023-03-18T05:09:15.366Z,64.68
2023-03-18T05:11:44.861Z,65.97
2023-03-18T05:14:20.439Z,65.20
2023-03-18T05:16:49.665Z,65.67
2023-03-18T05:19:18.092Z,65.62
2023-03-18T05:21:54.046Z,65.72
2023-03-18T05:24:22.133Z,66.81
2023-03-18T05:26:49.642Z,66.39
2023-03-18T05:29:19.143Z,66.06
2023-03-18T05:31:58.027Z,66.12
2023-03-18T05:34:27.239Z,65.87
2023-03-18T05:36:56.000Z,65.33
2023-03-18T05:39:23.740Z,65.29
2023-03-18T05:41:52.477Z,65.32
2023-03-18T05:44:26.309Z,65.87
2023-03-18T05:46:55.481Z,66.07
2023-03-18T05:49:48.328Z,66.47
2023-03-18T05:52:21.760Z,66.38
2023-03-18T05:54:51.239Z,66.79
2023-03-18T05:57:25.111Z,67.13
2023-03-18T05:59:58.403Z,67.84
2023-03-18T06:02:27.808Z,67.36
2023-03-18T06:04:55.595Z,67.75
2023-03-18T06:07:24.440Z,66.74
2023-03-18T06:09:52.375Z,66.72
2023-03-18T06:12:23.081Z,66.44
2023-03-18T06:14:50.670Z,66.34
2023-03-18T06:17:18.751Z,65.97
2023-03-18T06:19:46.566Z,65.30
2023-03-18T06:22:15.384Z,65.94
2023-03-18T06:24:43.565Z,67.09
2023-03-18T06:27:11.400Z,66.57
2023-03-18T06:29:42.792Z,67.34
2023-03-18T06:32:14.035Z,66.92
2023-03-18T06:34:41.955Z,66.74
2023-03-18T06:37:10.886Z,66.91
2023-03-18T06:39:40.767Z,67.17
2023-03-18T06:42:10.974Z,66.42
2023-03-18T06:44:50.557Z,67.15
2023-03-18T06:47:24.562Z,67.42
2023-03-18T06:49:56.970Z,66.83
2023-03-18T06:52:31.953Z,65.58
2023-03-18T06:55:06.600Z,65.19
2023-03-18T06:57:37.918Z,63.54
2023-03-18T07:00:07.054Z,62.73
2023-03-18T07:02:39.395Z,63.11
2023-03-18T07:05:08.592Z,62.50
2023-03-18T07:07:37.810Z,60.53
2023-03-18T07:10:07.481Z,58.36
2023-03-18T07:12:35.292Z,58.63
2023-03-18T07:15:03.997Z,58.96
2023-03-18T07:17:31.759Z,58.06
2023-03-18T07:19:59.114Z,55.29
2023-03-18T07:22:26.644Z,48.75
2023-03-18T07:24:54.943Z,44.95
2023-03-18T07:27:23.599Z,42.26
2023-03-18T07:29:51.583Z,42.30
2023-03-18T07:32:19.883Z,43.07
2023-03-18T07:34:48.494Z,44.78
2023-03-18T07:37:16.962Z,47.01
2023-03-18T07:39:44.372Z,46.89
2023-03-18T07:42:11.879Z,48.25
2023-03-18T07:44:45.998Z,49.62
2023-03-18T07:47:15.106Z,49.52
2023-03-18T07:49:42.568Z,48.80
2023-03-18T07:52:10.520Z,48.41
2023-03-18T07:54:37.991Z,48.58
2023-03-18T07:57:07.006Z,49.74
2023-03-18T07:59:34.465Z,50.28
2023-03-18T08:02:02.603Z,51.02
2023-03-18T08:04:30.866Z,51.13
2023-03-18T08:06:58.531Z,50.31
2023-03-18T08:09:27.730Z,50.33
2023-03-18T08:11:55.154Z,50.48
2023-03-18T08:14:22.511Z,50.53
2023-03-18T08:16:49.944Z,50.42
2023-03-18T08:19:17.349Z,50.53
2023-03-18T08:21:45.126Z,51.36
2023-03-18T08:24:12.600Z,51.22
2023-03-18T08:26:40.098Z,51.40
2023-03-18T08:29:07.485Z,50.21
2023-03-18T08:31:35.384Z,51.58
2023-03-18T08:34:02.785Z,50.62
2023-03-18T08:36:30.278Z,49.27
2023-03-18T08:38:57.691Z,49.32
2023-03-18T08:41:26.220Z,49.03
2023-03-18T08:43:55.499Z,48.24
2023-03-18T08:46:23.521Z,48.44
2023-03-18T08:48:51.530Z,48.83
2023-03-18T08:51:18.957Z,49.55
2023-03-18T08:53:46.323Z,49.15
2023-03-18T08:56:14.837Z,48.43
2023-03-18T08:58:42.261Z,47.58
2023-03-18T09:01:11.847Z,48.67
2023-03-18T09:03:39.487Z,48.37
2023-03-18T09:06:07.574Z,47.51
2023-03-18T09:08:34.963Z,46.32
2023-03-18T09:11:02.469Z,44.32
2023-03-18T09:13:29.938Z,42.45
2023-03-18T09:15:58.127Z,42.73
2023-03-18T09:18:25.749Z,43.78
2023-03-18T09:20:53.695Z,44.22
2023-03-18T09:23:21.468Z,43.82
2023-03-18T09:25:50.282Z,43.62
2023-03-18T09:28:17.942Z,43.62
2023-03-18T09:30:45.315Z,44.31
2023-03-18T09:33:13.785Z,44.02
2023-03-18T09:35:41.298Z,44.89
2023-03-18T09:38:14.400Z,45.68
2023-03-18T09:40:49.986Z,46.03
2023-03-18T09:43:32.293Z,46.27
2023-03-18T09:46:28.429Z,47.08
2023-03-18T09:49:00.629Z,47.44
2023-03-18T09:51:41.837Z,47.20
2023-03-18T09:54:17.214Z,45.93
2023-03-18T09:56:45.678Z,45.82
2023-03-18T09:59:42.205Z,45.58
2023-03-18T10:02:22.316Z,46.14
2023-03-18T10:04:56.226Z,45.41
2023-03-18T10:07:29.681Z,45.64
2023-03-18T10:10:09.575Z,45.57
2023-03-18T10:12:43.528Z,45.56
2023-03-18T10:15:14.796Z,46.10
2023-03-18T10:18:10.887Z,46.36
2023-03-18T10:21:12.353Z,46.42
2023-03-18T10:23:47.876Z,47.00
2023-03-18T10:26:24.504Z,46.98
2023-03-18T10:29:01.704Z,45.95
2023-03-18T10:31:46.399Z,45.66
2023-03-18T10:34:19.172Z,45.52
2023-03-18T10:36:51.149Z,46.07
2023-03-18T10:39:23.434Z,45.38
2023-03-18T10:41:53.575Z,45.40
2023-03-18T10:44:24.210Z,45.98
2023-03-18T10:47:15.513Z,46.26
2023-03-18T10:49:51.168Z,45.73
2023-03-18T10:52:37.483Z,45.53
2023-03-18T10:55:17.971Z,45.84
2023-03-18T10:57:45.784Z,44.21
2023-03-18T11:00:28.014Z,45.01
2023-03-18T11:02:57.142Z,46.25
2023-03-18T11:05:28.567Z,46.76
2023-03-18T11:08:04.970Z,46.58
2023-03-18T11:10:40.515Z,46.32
2023-03-18T11:13:08.056Z,47.22
2023-03-18T11:15:44.301Z,47.63
2023-03-18T11:18:19.607Z,46.90
2023-03-18T11:20:55.469Z,46.37
2023-03-18T11:23:48.643Z,46.11
2023-03-18T11:26:24.019Z,46.17
2023-03-18T11:28:59.876Z,45.91
2023-03-18T11:31:28.127Z,46.00
2023-03-18T11:34:08.847Z,45.63
2023-03-18T11:36:38.069Z,45.59
2023-03-18T11:39:06.884Z,45.34
2023-03-18T11:41:37.988Z,45.55
2023-03-18T11:44:17.856Z,45.26
2023-03-18T11:46:50.180Z,44.45
2023-03-18T11:49:23.716Z,44.83
2023-03-18T11:52:09.553Z,45.13
2023-03-18T11:55:01.021Z,45.78
2023-03-18T11:57:55.029Z,46.51
2023-03-18T12:00:55.910Z,45.80
2023-03-18T12:03:45.583Z,46.08
2023-03-18T12:06:26.527Z,46.45
2023-03-18T12:09:01.177Z,46.21
2023-03-18T12:11:38.538Z,45.81
2023-03-18T12:14:14.357Z,45.47
2023-03-18T12:16:48.807Z,44.81
2023-03-18T12:20:00.231Z,45.72
2023-03-18T12:22:50.600Z,45.79
2023-03-18T12:25:32.936Z,45.37
2023-03-18T12:28:28.916Z,45.21
2023-03-18T12:31:14.097Z,45.00
2023-03-18T12:33:47.720Z,44.93
2023-03-18T12:36:39.807Z,44.79
2023-03-18T12:39:26.489Z,42.77
2023-03-18T12:42:16.796Z,44.54
2023-03-18T12:45:02.258Z,43.64
2023-03-18T12:47:48.083Z,44.30
2023-03-18T12:50:20.013Z,45.06
2023-03-18T12:52:58.973Z,43.92
2023-03-18T12:55:33.753Z,43.90
2023-03-18T12:58:05.903Z,44.78
2023-03-18T13:00:40.134Z,44.18
2023-03-18T13:03:24.736Z,43.56
2023-03-18T13:06:08.701Z,43.19
2023-03-18T13:08:43.940Z,43.63
2023-03-18T13:11:32.338Z,42.21
2023-03-18T13:14:07.381Z,43.16
2023-03-18T13:16:36.690Z,43.71
2023-03-18T13:19:04.804Z,43.89
2023-03-18T13:21:40.181Z,43.67
2023-03-18T13:24:21.923Z,43.73
2023-03-18T13:26:52.401Z,43.32
2023-03-18T13:29:38.482Z,43.09
2023-03-18T13:32:55.788Z,43.24
2023-03-18T13:35:28.978Z,43.35
2023-03-18T13:38:17.463Z,43.09
2023-03-18T13:41:22.470Z,42.12
2023-03-18T13:43:51.275Z,43.02
2023-03-18T13:46:27.460Z,41.94
2023-03-18T13:49:01.236Z,41.68
2023-03-18T13:51:28.830Z,41.89
2023-03-18T13:54:06.818Z,42.24
2023-03-18T13:56:50.514Z,42.39
2023-03-18T13:59:33.087Z,42.76
2023-03-18T14:02:23.075Z,42.89
2023-03-18T14:04:52.144Z,42.99
2023-03-18T14:07:21.711Z,42.26
2023-03-18T14:10:18.795Z,42.52
2023-03-18T14:12:48.067Z,42.93
2023-03-18T14:15:15.798Z,42.74
2023-03-18T14:17:58.383Z,42.79
2023-03-18T14:20:38.605Z,42.26
2023-03-18T14:23:24.320Z,42.50
2023-03-18T14:26:02.459Z,42.30
2023-03-18T14:28:42.003Z,42.46
2023-03-18T14:31:21.243Z,42.03
2023-03-18T14:34:04.565Z,41.63
2023-03-18T14:36:53.395Z,41.43
2023-03-18T14:39:30.286Z,41.31
2023-03-18T14:42:01.987Z,41.17
2023-03-18T14:45:01.757Z,39.82
2023-03-18T14:47:57.910Z,40.34
2023-03-18T14:50:35.508Z,40.58
2023-03-18T14:53:05.608Z,41.40
2023-03-18T14:55:35.846Z,40.26
2023-03-18T14:58:04.074Z,40.63
2023-03-18T15:00:36.907Z,40.97
2023-03-18T15:03:13.339Z,40.28
2023-03-18T15:05:43.274Z,40.82
2023-03-18T15:08:19.186Z,41.05
2023-03-18T15:10:50.444Z,40.40
2023-03-18T15:13:21.299Z,41.09
2023-03-18T15:15:50.644Z,40.85
2023-03-18T15:18:29.143Z,40.72
2023-03-18T15:21:21.468Z,40.82
2023-03-18T15:23:54.636Z,41.18
2023-03-18T15:26:29.712Z,41.42
2023-03-18T15:29:00.355Z,40.69
2023-03-18T15:32:10.063Z,41.06
2023-03-18T15:34:41.597Z,41.22
2023-03-18T15:37:40.879Z,41.00
2023-03-18T15:40:23.496Z,40.93
2023-03-18T15:42:54.934Z,41.14
2023-03-18T15:45:27.251Z,41.16
2023-03-18T15:47:58.315Z,40.88
2023-03-18T15:50:30.729Z,40.94
2023-03-18T15:53:25.958Z,41.24
2023-03-18T15:55:56.071Z,40.76
2023-03-18T15:58:27.508Z,40.58
2023-03-18T16:00:56.695Z,40.72
2023-03-18T16:03:27.229Z,39.93
2023-03-18T16:05:55.330Z,39.32
2023-03-18T16:08:23.666Z,38.99
2023-03-18T16:10:54.984Z,39.40
2023-03-18T16:13:29.478Z,39.52
2023-03-18T16:15:56.930Z,39.87
2023-03-18T16:18:24.605Z,39.50
2023-03-18T16:20:53.893Z,39.25
2023-03-18T16:23:21.396Z,39.73
2023-03-18T16:25:52.306Z,40.38
2023-03-18T16:28:28.285Z,40.35
2023-03-18T16:30:58.713Z,40.94
2023-03-18T16:33:26.262Z,40.58
2023-03-18T16:35:58.746Z,40.75
2023-03-18T16:38:27.094Z,40.85
2023-03-18T16:40:56.108Z,41.13
2023-03-18T16:43:29.023Z,41.43
2023-03-18T16:46:06.341Z,41.79
2023-03-18T16:48:33.949Z,41.98
2023-03-18T16:51:03.007Z,42.23
2023-03-18T16:53:31.621Z,42.71
2023-03-18T16:56:25.895Z,42.46
2023-03-18T16:58:53.532Z,42.73
2023-03-18T17:01:21.478Z,43.13
2023-03-18T17:03:49.613Z,42.80
2023-03-18T17:06:17.115Z,42.69
2023-03-18T17:08:44.635Z,42.98
2023-03-18T17:11:18.375Z,42.90
2023-03-18T17:13:46.739Z,42.99
2023-03-18T17:16:18.205Z,43.22
2023-03-18T17:18:45.645Z,43.48
2023-03-18T17:21:13.043Z,43.59
2023-03-18T17:23:41.731Z,43.96
2023-03-18T17:26:14.515Z,43.92
2023-03-18T17:28:45.050Z,44.13
2023-03-18T17:31:12.640Z,44.58
2023-03-18T17:33:40.589Z,44.28
2023-03-18T17:36:08.639Z,44.03
2023-03-18T17:38:36.411Z,44.22
2023-03-18T17:41:12.306Z,44.17
2023-03-18T17:43:40.201Z,44.29
2023-03-18T17:46:08.053Z,44.40
2023-03-18T17:48:39.747Z,44.46
2023-03-18T17:51:12.113Z,44.90
2023-03-18T17:53:44.025Z,45.19
2023-03-18T17:56:14.180Z,45.19
2023-03-18T17:58:47.195Z,45.68
2023-03-18T18:01:17.656Z,45.38
2023-03-18T18:03:45.466Z,46.18
2023-03-18T18:06:21.078Z,46.43
2023-03-18T18:08:49.283Z,46.46
2023-03-18T18:11:35.336Z,46.51
2023-03-18T18:14:14.901Z,46.74
2023-03-18T18:16:43.645Z,46.96
2023-03-18T18:19:11.659Z,47.07
2023-03-18T18:21:39.262Z,47.31
2023-03-18T18:24:33.513Z,47.55
2023-03-18T18:27:00.953Z,47.60
2023-03-18T18:29:29.697Z,47.70
2023-03-18T18:31:57.427Z,47.67
2023-03-18T18:34:24.939Z,47.72
2023-03-18T18:36:52.388Z,46.66
2023-03-18T18:39:21.086Z,46.70
2023-03-18T18:41:48.894Z,46.46
2023-03-18T18:44:16.506Z,50.25
2023-03-18T18:46:43.987Z,52.63
2023-03-18T18:49:23.216Z,55.65
2023-03-18T18:51:55.245Z,56.15
2023-03-18T18:54:24.044Z,57.80
2023-03-18T18:56:52.264Z,59.10
2023-03-18T18:59:24.881Z,60.08
2023-03-18T19:01:53.790Z,61.04
2023-03-18T19:04:21.980Z,61.48
2023-03-18T19:06:51.003Z,62.60
2023-03-18T19:09:20.904Z,63.07
2023-03-18T19:11:50.193Z,63.43
2023-03-18T19:14:19.268Z,63.96
2023-03-18T19:16:48.257Z,64.46
2023-03-18T19:19:19.337Z,64.98
2023-03-18T19:21:47.187Z,65.39
2023-03-18T19:24:26.936Z,65.43
2023-03-18T19:26:56.411Z,65.70
2023-03-18T19:29:24.139Z,66.00
2023-03-18T19:31:51.696Z,66.20
2023-03-18T19:34:20.870Z,66.89
2023-03-18T19:36:52.783Z,66.42
2023-03-18T19:39:22.090Z,66.72
2023-03-18T19:41:49.558Z,67.05
2023-03-18T19:44:19.239Z,67.78
2023-03-18T19:46:48.437Z,67.80
2023-03-18T19:49:26.450Z,68.13
2023-03-18T19:51:55.395Z,68.07
2023-03-18T19:54:35.514Z,68.03
2023-03-18T19:57:06.905Z,67.72
2023-03-18T19:59:39.183Z,67.60
2023-03-18T20:02:32.585Z,68.11
2023-03-18T20:05:03.004Z,68.20
2023-03-18T20:07:32.836Z,68.57
2023-03-18T20:10:00.356Z,67.83
2023-03-18T20:12:36.640Z,68.28
2023-03-18T20:15:12.218Z,67.93
2023-03-18T20:17:44.891Z,68.09
2023-03-18T20:20:18.100Z,67.67
2023-03-18T20:22:58.556Z,68.07
2023-03-18T20:25:29.255Z,67.35
2023-03-18T20:27:58.083Z,67.24
2023-03-18T20:30:31.812Z,67.57
2023-03-18T20:33:00.600Z,68.13
2023-03-18T20:35:30.346Z,68.01
2023-03-18T20:38:00.853Z,67.91
2023-03-18T20:40:29.946Z,67.98
2023-03-18T20:42:57.689Z,67.95
2023-03-18T20:45:26.271Z,68.43
2023-03-18T20:47:53.638Z,68.95
2023-03-18T20:50:26.509Z,69.16
2023-03-18T20:52:54.489Z,69.42
2023-03-18T20:55:26.737Z,69.62
2023-03-18T20:57:54.467Z,69.64
2023-03-18T21:00:24.640Z,70.14
2023-03-18T21:02:54.264Z,70.27
2023-03-18T21:05:22.120Z,69.91
2023-03-18T21:07:49.524Z,69.91
2023-03-18T21:10:22.735Z,70.02
2023-03-18T21:12:50.980Z,69.70
2023-03-18T21:15:24.817Z,69.47
2023-03-18T21:17:52.811Z,69.62
2023-03-18T21:20:25.731Z,69.71
2023-03-18T21:22:54.465Z,70.02
2023-03-18T21:25:27.700Z,69.65
2023-03-18T21:27:55.336Z,69.71
2023-03-18T21:30:23.932Z,69.76
2023-03-18T21:32:51.617Z,69.77
2023-03-18T21:35:25.697Z,69.69
2023-03-18T21:37:54.202Z,70.19
2023-03-18T21:40:23.885Z,69.89
2023-03-18T21:42:51.714Z,69.14
2023-03-18T21:45:21.371Z,69.43
2023-03-18T21:47:48.794Z,69.58
2023-03-18T21:50:25.225Z,69.57
2023-03-18T21:52:54.207Z,69.38
2023-03-18T21:55:22.268Z,70.24
2023-03-18T21:57:49.789Z,70.31
2023-03-18T22:00:20.227Z,70.14
2023-03-18T22:02:48.442Z,69.83
2023-03-18T22:05:19.654Z,70.18
2023-03-18T22:07:47.777Z,69.82
2023-03-18T22:10:17.552Z,69.71
2023-03-18T22:12:45.548Z,69.37
2023-03-18T22:15:24.711Z,69.62
2023-03-18T22:17:52.476Z,69.33
2023-03-18T22:20:19.915Z,69.31
2023-03-18T22:22:47.476Z,69.81
2023-03-18T22:25:32.896Z,69.78
2023-03-18T22:28:00.933Z,69.35
2023-03-18T22:30:30.917Z,69.41
2023-03-18T22:33:00.129Z,69.56
2023-03-18T22:35:29.342Z,69.73
2023-03-18T22:37:56.924Z,69.45
2023-03-18T22:40:27.333Z,69.25
2023-03-18T22:43:01.914Z,70.30
2023-03-18T22:45:32.246Z,70.29
2023-03-18T22:48:02.572Z,70.00
2023-03-18T22:50:32.247Z,70.05
2023-03-18T22:53:03.532Z,70.17
2023-03-18T22:55:37.085Z,70.02
2023-03-18T22:58:04.654Z,69.99
2023-03-18T23:00:43.636Z,69.50
2023-03-18T23:03:20.364Z,69.64
2023-03-18T23:05:50.477Z,70.11
2023-03-18T23:08:19.531Z,70.38
2023-03-18T23:10:48.185Z,70.28
2023-03-18T23:13:26.164Z,71.23
2023-03-18T23:15:54.079Z,71.88
2023-03-18T23:18:21.603Z,72.57
2023-03-18T23:20:50.400Z,72.85
2023-03-18T23:23:18.758Z,73.15
2023-03-18T23:25:46.645Z,72.77
2023-03-18T23:28:14.764Z,73.72
2023-03-18T23:30:43.900Z,73.79
2023-03-18T23:33:11.692Z,73.62
2023-03-18T23:35:39.538Z,73.56
2023-03-18T23:38:07.307Z,73.54
2023-03-18T23:40:34.635Z,73.21
2023-03-18T23:43:02.101Z,73.51
2023-03-18T23:45:29.717Z,73.10
2023-03-18T23:47:57.574Z,73.05
2023-03-18T23:50:24.930Z,72.98
2023-03-18T23:52:52.363Z,73.08
2023-03-18T23:55:45.464Z,72.63
2023-03-18T23:58:07.199Z,73.30
